Time;durP1;ratioP1;P1;durP2;ratioP2;P2;SDS_P1;SDS_P2;PMS_P1;PMS_P2;Temp;Humidity;BMP_temperature;BMP_pressure;BME280_temperature;BME280_humidity;BME280_pressure;Samples;Min_cycle;Max_cycle;Signal;HPM_P1;HPM_P2
2022/03/01 00:01:16;;;;;;;24.90;15.20;;;;;;;2.27;65.44;102758.84;5038832;28;20408;-56
2022/03/01 00:03:41;;;;;;;25.10;14.40;;;;;;;2.22;64.81;102756.38;5031307;28;20060;-56
2022/03/01 00:06:06;;;;;;;25.50;14.90;;;;;;;2.20;65.13;102758.22;5035309;28;20049;-57
2022/03/01 00:08:31;;;;;;;24.33;14.40;;;;;;;2.19;64.63;102758.28;5030263;28;20037;-54
2022/03/01 00:10:57;;;;;;;24.50;14.60;;;;;;;2.15;64.76;102766.25;5030631;28;20445;-56
2022/03/01 00:13:22;;;;;;;23.17;14.90;;;;;;;2.15;65.71;102768.00;5039012;28;20033;-56
2022/03/01 00:15:47;;;;;;;27.30;15.10;;;;;;;2.11;65.83;102761.19;5030095;28;20029;-55
2022/03/01 00:18:13;;;;;;;25.77;14.80;;;;;;;2.08;65.51;102761.31;5027851;28;20033;-56
2022/03/01 00:20:39;;;;;;;24.93;14.90;;;;;;;2.06;66.64;102752.66;5031497;28;20393;-56
2022/03/01 00:23:04;;;;;;;24.80;14.63;;;;;;;2.01;65.62;102753.69;5048569;28;20032;-55
2022/03/01 00:25:31;;;;;;;22.90;14.30;;;;;;;2.00;65.78;102762.47;5034081;28;20502;-56
2022/03/01 00:27:56;;;;;;;26.03;15.10;;;;;;;1.96;66.43;102758.25;5033234;28;20034;-56
2022/03/01 00:30:22;;;;;;;25.67;15.00;;;;;;;1.93;67.24;102753.09;5025934;28;20029;-55
2022/03/01 00:32:47;;;;;;;25.73;14.70;;;;;;;1.89;66.19;102756.78;5034393;28;20510;-55
2022/03/01 00:35:12;;;;;;;26.80;14.80;;;;;;;1.84;66.60;102759.56;5034601;28;20045;-55
2022/03/01 00:37:37;;;;;;;23.50;13.97;;;;;;;1.82;65.52;102760.53;5034176;28;20033;-56
2022/03/01 00:40:04;;;;;;;25.50;14.47;;;;;;;1.80;65.18;102763.19;5033973;28;20120;-55
2022/03/01 00:42:29;;;;;;;23.37;14.43;;;;;;;1.78;66.55;102764.16;5033491;28;20067;-56
2022/03/01 00:44:55;;;;;;;24.33;14.50;;;;;;;1.77;66.40;102762.47;5033853;28;20110;-55
2022/03/01 00:47:20;;;;;;;24.17;14.90;;;;;;;1.76;67.69;102758.13;5034653;28;20460;-55
2022/03/01 00:49:45;;;;;;;26.13;15.27;;;;;;;1.71;66.61;102758.28;5034542;28;20107;-55
2022/03/01 00:52:10;;;;;;;26.00;15.37;;;;;;;1.67;68.34;102769.78;5033553;28;20037;-56
2022/03/01 00:54:36;;;;;;;24.07;14.77;;;;;;;1.64;67.78;102752.44;5033835;28;20040;-57
2022/03/01 00:57:01;;;;;;;23.93;14.43;;;;;;;1.60;68.26;102758.69;5033097;28;20034;-54
2022/03/01 00:59:26;;;;;;;23.47;14.43;;;;;;;1.55;68.59;102758.84;5021149;28;20034;-56
2022/03/01 01:01:52;;;;;;;24.43;15.07;;;;;;;1.54;68.10;102766.75;5033973;28;20057;-56
2022/03/01 01:04:17;;;;;;;24.53;14.43;;;;;;;1.53;66.48;102762.44;5033172;28;20037;-55
2022/03/01 01:06:42;;;;;;;25.17;14.27;;;;;;;1.53;66.93;102757.19;5032643;28;20053;-56
2022/03/01 01:09:08;;;;;;;26.13;14.77;;;;;;;1.50;67.25;102759.91;5031552;28;20041;-56
2022/03/01 01:11:34;;;;;;;24.13;14.23;;;;;;;1.46;67.28;102760.03;5031179;28;20030;-56
2022/03/01 01:13:59;;;;;;;24.03;14.17;;;;;;;1.47;67.75;102756.50;5033163;28;20462;-56
2022/03/01 01:16:24;;;;;;;27.13;14.73;;;;;;;1.49;68.42;102753.84;5032976;28;20032;-56
2022/03/01 01:18:50;;;;;;;23.97;14.30;;;;;;;1.48;67.76;102755.59;5024913;28;20674;-56
2022/03/01 01:21:15;;;;;;;25.57;14.13;;;;;;;1.46;67.31;102754.81;5033713;28;20458;-57
2022/03/01 01:23:43;;;;;;;25.53;14.10;;;;;;;1.46;67.54;102760.03;5031239;28;20044;-56
2022/03/01 01:26:09;;;;;;;24.40;14.27;;;;;;;1.47;67.35;102755.63;5033184;28;20049;-56
2022/03/01 01:28:34;;;;;;;25.00;13.93;;;;;;;1.46;67.24;102760.03;5028429;28;20060;-56
2022/03/01 01:31:00;;;;;;;25.13;14.57;;;;;;;1.44;67.63;102751.38;5026866;28;20060;-56
2022/03/01 01:33:25;;;;;;;22.77;14.07;;;;;;;1.43;66.47;102762.75;5032987;28;20038;-54
2022/03/01 01:35:50;;;;;;;24.17;14.23;;;;;;;1.42;66.89;102758.41;5032963;28;20034;-56
2022/03/01 01:38:15;;;;;;;23.67;13.60;;;;;;;1.41;67.14;102756.72;5031139;28;20388;-56
2022/03/01 01:40:41;;;;;;;24.60;14.07;;;;;;;1.40;66.75;102765.47;5033402;28;20068;-55
2022/03/01 01:43:06;;;;;;;25.77;14.50;;;;;;;1.40;67.12;102760.25;5032208;28;20096;-55
2022/03/01 01:45:32;;;;;;;23.73;13.93;;;;;;;1.44;67.29;102756.59;5033002;28;20061;-55
2022/03/01 01:48:00;;;;;;;24.17;14.17;;;;;;;1.39;67.78;102748.09;5032215;28;20795;-56
2022/03/01 01:50:27;;;;;;;23.33;14.27;;;;;;;1.44;68.05;102753.97;5033361;28;20112;-56
2022/03/01 01:52:54;;;;;;;26.50;14.60;;;;;;;1.43;67.25;102749.66;5032592;28;20044;-55
2022/03/01 01:55:20;;;;;;;25.90;14.43;;;;;;;1.43;67.92;102747.06;5033155;28;20033;-56
2022/03/01 01:57:45;;;;;;;26.33;14.50;;;;;;;1.45;66.81;102747.88;5032528;28;20046;-56
2022/03/01 02:00:11;;;;;;;22.50;13.73;;;;;;;1.45;67.31;102747.88;5033070;28;20044;-56
2022/03/01 02:02:36;;;;;;;26.33;13.93;;;;;;;1.45;67.07;102747.88;5025485;28;20036;-56
2022/03/01 02:05:02;;;;;;;23.33;13.53;;;;;;;1.45;67.34;102747.88;5032237;28;20033;-56
2022/03/01 02:07:28;;;;;;;24.80;14.50;;;;;;;1.42;67.16;102747.97;5027577;28;20036;-56
2022/03/01 02:09:54;;;;;;;24.43;13.93;;;;;;;1.44;65.96;102742.69;5032435;28;20033;-55
2022/03/01 02:12:19;;;;;;;24.30;13.67;;;;;;;1.43;65.70;102739.22;5032512;28;20124;-56
2022/03/01 02:14:44;;;;;;;25.10;14.50;;;;;;;1.43;67.03;102744.44;5030572;28;20446;-56
2022/03/01 02:17:10;;;;;;;24.43;13.97;;;;;;;1.45;66.47;102739.16;5023029;28;20029;-56
2022/03/01 02:19:37;;;;;;;22.77;13.57;;;;;;;1.46;65.49;102749.56;5032674;28;20103;-57
2022/03/01 02:22:06;;;;;;;23.23;14.03;;;;;;;1.41;66.14;102734.94;5031530;28;20045;-56
2022/03/01 02:24:32;;;;;;;24.70;14.93;;;;;;;1.45;65.82;102742.66;5032954;28;20075;-56
2022/03/01 02:27:00;;;;;;;24.57;14.47;;;;;;;1.44;65.81;102743.53;5031854;28;20068;-55
2022/03/01 02:29:26;;;;;;;24.70;13.93;;;;;;;1.44;66.09;102740.91;5032083;28;20033;-56
2022/03/01 02:31:53;;;;;;;21.33;13.43;;;;;;;1.44;65.81;102743.53;5031357;28;20045;-56
2022/03/01 02:34:19;;;;;;;23.83;13.43;;;;;;;1.44;66.08;102735.69;5025988;28;20029;-56
2022/03/01 02:36:45;;;;;;;24.30;14.30;;;;;;;1.44;65.78;102740.91;5019775;28;20121;-55
2022/03/01 02:39:11;;;;;;;26.60;13.83;;;;;;;1.45;67.01;102741.78;5028750;28;20021;-56
2022/03/01 02:41:38;;;;;;;23.37;13.80;;;;;;;1.44;66.70;102734.84;5028580;28;20091;-57
2022/03/01 02:44:04;;;;;;;25.47;14.60;;;;;;;1.43;66.55;102739.22;5029684;28;20040;-56
2022/03/01 02:46:29;;;;;;;23.33;14.13;;;;;;;1.44;66.52;102737.47;5030494;28;20400;-57
2022/03/01 02:48:54;;;;;;;25.67;13.33;;;;;;;1.42;66.14;102731.41;5030183;28;20060;-56
2022/03/01 02:51:20;;;;;;;25.50;13.77;;;;;;;1.44;66.04;102727.84;5029981;28;20116;-56
2022/03/01 02:53:45;;;;;;;22.60;13.60;;;;;;;1.47;66.03;102724.25;5030881;28;20040;-56
2022/03/01 02:56:11;;;;;;;23.27;13.93;;;;;;;1.47;65.65;102722.50;5032287;28;20021;-56
2022/03/01 02:58:36;;;;;;;23.37;13.07;;;;;;;1.46;66.31;102720.81;5023428;28;20037;-56
2022/03/01 03:01:02;;;;;;;23.57;13.40;;;;;;;1.47;65.54;102717.28;5023881;28;20029;-55
2022/03/01 03:03:27;;;;;;;22.70;13.23;;;;;;;1.48;64.65;102716.38;5030091;28;20158;-55
2022/03/01 03:05:52;;;;;;;24.43;13.30;;;;;;;1.54;64.30;102719.69;5029134;28;20376;-56
2022/03/01 03:08:18;;;;;;;24.73;13.20;;;;;;;1.57;64.23;102722.16;5031138;28;20044;-55
2022/03/01 03:10:43;;;;;;;23.83;13.30;;;;;;;1.61;64.86;102713.31;5031823;28;20056;-55
2022/03/01 03:13:08;;;;;;;23.17;13.53;;;;;;;1.63;64.69;102708.88;5031542;28;20037;-55
2022/03/01 03:15:33;;;;;;;25.67;13.90;;;;;;;1.67;64.13;102707.84;5031701;28;20029;-56
2022/03/01 03:17:59;;;;;;;22.03;13.37;;;;;;;1.71;63.49;102712.06;5029591;28;20038;-56
2022/03/01 03:20:24;;;;;;;24.07;13.40;;;;;;;1.76;63.13;102718.91;5031715;28;20373;-57
2022/03/01 03:22:50;;;;;;;24.30;13.50;;;;;;;1.77;64.00;102718.00;5030398;28;20041;-55
2022/03/01 03:25:15;;;;;;;23.67;13.10;;;;;;;1.76;64.40;102716.28;5031149;28;20030;-56
2022/03/01 03:27:41;;;;;;;22.83;13.27;;;;;;;1.76;64.27;102718.91;5030039;28;20033;-56
2022/03/01 03:30:08;;;;;;;23.23;13.20;;;;;;;1.71;64.20;102704.22;5030744;28;20032;-56
2022/03/01 03:32:34;;;;;;;23.67;12.97;;;;;;;1.73;64.14;102712.00;5028924;28;20037;-56
2022/03/01 03:35:02;;;;;;;23.57;12.87;;;;;;;1.71;64.30;102709.44;5030913;28;20030;-56
2022/03/01 03:37:27;;;;;;;21.30;12.93;;;;;;;1.71;64.05;102712.06;5031407;28;20160;-55
2022/03/01 03:39:52;;;;;;;21.40;13.20;;;;;;;1.69;64.45;102719.13;5031036;28;20368;-54
2022/03/01 03:42:18;;;;;;;24.20;13.20;;;;;;;1.69;64.86;102713.91;5025999;28;20527;-57
2022/03/01 03:44:43;;;;;;;23.33;13.57;;;;;;;1.68;64.92;102717.41;5030290;28;20047;-56
2022/03/01 03:47:09;;;;;;;24.90;13.50;;;;;;;1.68;64.54;102720.00;5029041;28;20121;-57
2022/03/01 03:49:35;;;;;;;23.47;13.50;;;;;;;1.69;64.20;102713.91;5026114;28;20056;-55
2022/03/01 03:52:00;;;;;;;21.10;12.97;;;;;;;1.68;65.01;102712.16;5029799;28;20364;-56
2022/03/01 03:54:26;;;;;;;26.30;13.93;;;;;;;1.70;64.14;102717.34;5030251;28;20029;-56
2022/03/01 03:56:51;;;;;;;21.87;13.30;;;;;;;1.70;64.16;102710.38;5035103;28;20033;-56
2022/03/01 03:59:17;;;;;;;23.07;13.80;;;;;;;1.64;63.99;102707.97;5035010;28;20038;-56
2022/03/01 04:01:42;;;;;;;24.10;13.90;;;;;;;1.67;64.04;102712.25;5033997;28;20464;-57
2022/03/01 04:04:08;;;;;;;22.80;13.33;;;;;;;1.66;64.57;102711.38;5034760;28;20112;-56
2022/03/01 04:06:34;;;;;;;23.57;13.93;;;;;;;1.67;64.33;102715.69;5028188;28;20515;-56
2022/03/01 04:08:59;;;;;;;24.37;13.83;;;;;;;1.64;64.92;102714.97;5033556;28;20255;-55
2022/03/01 04:11:25;;;;;;;22.90;13.67;;;;;;;1.62;64.20;102712.38;5034365;28;20452;-56
2022/03/01 04:13:52;;;;;;;22.03;13.73;;;;;;;1.61;64.53;102715.91;5033512;28;20025;-54
2022/03/01 04:16:17;;;;;;;23.33;14.03;;;;;;;1.59;65.20;102713.34;5033221;28;20029;-55
2022/03/01 04:18:43;;;;;;;25.40;13.70;;;;;;;1.59;64.67;102722.97;5033977;28;20494;-56
2022/03/01 04:21:08;;;;;;;26.17;14.33;;;;;;;1.60;66.22;102724.69;5033590;28;20030;-56
2022/03/01 04:23:33;;;;;;;23.10;14.20;;;;;;;1.59;65.97;102722.97;5033240;28;20087;-55
2022/03/01 04:25:59;;;;;;;25.83;14.10;;;;;;;1.58;65.92;102726.50;5031931;28;20903;-56
2022/03/01 04:28:24;;;;;;;27.37;15.70;;;;;;;1.57;66.50;102730.00;5033350;28;20036;-56
2022/03/01 04:30:49;;;;;;;31.37;16.73;;;;;;;1.60;65.62;102730.78;5032591;28;20037;-55
2022/03/01 04:33:14;;;;;;;26.67;15.53;;;;;;;1.60;64.75;102724.69;5033124;28;20108;-55
2022/03/01 04:35:40;;;;;;;26.37;15.60;;;;;;;1.60;64.75;102724.69;5033444;28;20036;-56
2022/03/01 04:38:05;;;;;;;24.03;14.77;;;;;;;1.61;65.18;102724.63;5032189;28;20041;-56
2022/03/01 04:40:31;;;;;;;25.50;14.60;;;;;;;1.62;65.34;102722.84;5028968;28;20030;-56
2022/03/01 04:42:56;;;;;;;23.13;14.20;;;;;;;1.64;65.45;102720.19;5034364;28;20025;-56
2022/03/01 04:45:21;;;;;;;25.20;13.90;;;;;;;1.66;64.96;102719.22;5033111;28;20029;-56
2022/03/01 04:47:47;;;;;;;26.50;14.63;;;;;;;1.67;65.26;102718.31;5024835;28;20087;-56
2022/03/01 04:50:12;;;;;;;22.80;14.27;;;;;;;1.67;64.29;102712.25;5032033;28;20056;-53
2022/03/01 04:52:38;;;;;;;25.90;14.40;;;;;;;1.69;64.36;102715.66;5032795;28;20412;-56
2022/03/01 04:55:04;;;;;;;24.23;13.73;;;;;;;1.71;64.37;102712.06;5033656;28;20044;-54
2022/03/01 04:57:29;;;;;;;26.50;14.07;;;;;;;1.73;64.32;102714.63;5034634;28;20380;-55
2022/03/01 04:59:55;;;;;;;27.63;14.13;;;;;;;1.77;64.44;102710.13;5032719;28;20036;-56
2022/03/01 05:02:21;;;;;;;22.77;13.13;;;;;;;1.78;62.81;102704.81;5026151;28;21581;-54
2022/03/01 05:04:46;;;;;;;25.17;13.87;;;;;;;1.80;62.72;102710.00;5030862;28;20029;-55
2022/03/01 05:07:11;;;;;;;24.83;14.33;;;;;;;1.80;62.86;102710.88;5031475;28;20086;-54
2022/03/01 05:09:36;;;;;;;24.83;14.57;;;;;;;1.82;63.15;102708.22;5030829;28;20052;-56
2022/03/01 05:12:02;;;;;;;27.70;14.93;;;;;;;1.84;63.45;102711.59;5034178;28;20068;-56
2022/03/01 05:14:28;;;;;;;24.27;14.33;;;;;;;1.83;63.23;102708.13;5032362;28;20040;-57
2022/03/01 05:16:53;;;;;;;26.33;14.40;;;;;;;1.85;62.96;102708.06;5033437;28;20500;-55
2022/03/01 05:19:18;;;;;;;23.53;14.30;;;;;;;1.85;62.93;102703.72;5033122;28;20052;-56
2022/03/01 05:21:43;;;;;;;27.20;14.17;;;;;;;1.84;62.76;102711.59;5034026;28;20029;-56
2022/03/01 05:24:09;;;;;;;23.73;13.57;;;;;;;1.84;62.64;102709.00;5030824;28;20057;-56
2022/03/01 05:26:34;;;;;;;22.90;13.93;;;;;;;1.82;64.04;102702.97;5031342;28;20033;-55
2022/03/01 05:29:00;;;;;;;26.23;14.00;;;;;;;1.81;63.73;102696.00;5032990;28;20033;-55
2022/03/01 05:31:25;;;;;;;25.43;14.13;;;;;;;1.81;63.60;102688.16;5027696;28;20091;-56
2022/03/01 05:33:51;;;;;;;22.70;13.37;;;;;;;1.80;63.00;102686.47;5031007;28;20033;-52
2022/03/01 05:36:17;;;;;;;24.07;14.00;;;;;;;1.77;64.35;102684.81;5029676;28;20112;-56
2022/03/01 05:38:43;;;;;;;23.10;14.13;;;;;;;1.76;64.32;102683.13;5024285;28;20105;-56
2022/03/01 05:41:09;;;;;;;25.17;13.90;;;;;;;1.78;63.48;102680.44;5031806;28;20029;-56
2022/03/01 05:43:36;;;;;;;24.10;14.20;;;;;;;1.76;63.35;102679.66;5033231;28;20053;-56
2022/03/01 05:46:01;;;;;;;22.57;13.83;;;;;;;1.76;63.01;102677.88;5032848;28;20026;-54
2022/03/01 05:48:27;;;;;;;24.37;14.20;;;;;;;1.78;63.30;102685.69;5030542;28;20036;-57
2022/03/01 05:50:53;;;;;;;23.70;13.67;;;;;;;1.76;63.51;102679.66;5028358;28;20345;-55
2022/03/01 05:53:18;;;;;;;22.83;13.43;;;;;;;1.74;62.26;102670.09;5025482;28;20033;-55
2022/03/01 05:55:44;;;;;;;22.97;13.50;;;;;;;1.74;61.55;102680.53;5021892;28;20087;-56
2022/03/01 05:58:09;;;;;;;24.40;13.70;;;;;;;1.75;62.00;102691.88;5024702;28;20043;-59
2022/03/01 06:00:35;;;;;;;21.53;14.23;;;;;;;1.72;63.22;102690.22;5018746;28;20440;-54
2022/03/01 06:03:00;;;;;;;26.37;13.73;;;;;;;1.73;62.62;102678.00;5021946;28;20105;-56
2022/03/01 06:05:27;;;;;;;23.77;13.23;;;;;;;1.71;62.68;102679.81;5023434;28;20046;-55
2022/03/01 06:07:52;;;;;;;23.03;13.90;;;;;;;1.71;62.37;102680.69;5022195;28;20025;-57
2022/03/01 06:10:18;;;;;;;23.33;13.77;;;;;;;1.71;63.11;102682.44;5025103;28;20478;-55
2022/03/01 06:12:44;;;;;;;27.40;15.07;;;;;;;1.72;62.54;102677.16;5018801;28;20108;-56
2022/03/01 06:15:10;;;;;;;25.57;14.63;;;;;;;1.71;62.79;102664.13;5025045;28;20060;-56
2022/03/01 06:17:37;;;;;;;22.87;13.40;;;;;;;1.73;62.13;102672.78;5021657;28;20053;-57
2022/03/01 06:20:03;;;;;;;24.10;13.70;;;;;;;1.72;62.03;102679.75;5022212;28;20042;-56
2022/03/01 06:22:28;;;;;;;25.90;14.13;;;;;;;1.72;62.25;102674.53;5022644;28;20029;-57
2022/03/01 06:24:56;;;;;;;25.17;14.60;;;;;;;1.75;62.87;102678.78;5023976;28;20030;-56
2022/03/01 06:27:23;;;;;;;25.60;15.67;;;;;;;1.73;63.17;102678.84;5019893;28;20030;-56
2022/03/01 06:29:48;;;;;;;28.60;15.30;;;;;;;1.75;63.21;102681.41;5023454;28;20044;-57
2022/03/01 06:32:13;;;;;;;24.73;14.13;;;;;;;1.73;62.98;102684.06;5024667;28;20025;-56
2022/03/01 06:34:39;;;;;;;24.70;14.47;;;;;;;1.70;62.37;102685.97;5020593;28;20130;-58
2022/03/01 06:37:04;;;;;;;23.37;14.47;;;;;;;1.72;62.20;102686.75;5024632;28;20025;-58
2022/03/01 06:39:32;;;;;;;25.33;15.07;;;;;;;1.74;62.86;102701.47;5025534;28;20124;-57
2022/03/01 06:41:58;;;;;;;26.77;15.33;;;;;;;1.73;63.55;102699.78;5021942;28;20033;-57
2022/03/01 06:44:23;;;;;;;27.17;14.80;;;;;;;1.71;63.79;102701.59;5024572;28;20056;-58
2022/03/01 06:46:48;;;;;;;29.23;15.17;;;;;;;1.71;63.94;102706.84;5019072;28;20169;-56
2022/03/01 06:49:14;;;;;;;27.07;15.10;;;;;;;1.71;64.55;102704.22;5025254;28;20396;-57
2022/03/01 06:51:39;;;;;;;27.40;15.50;;;;;;;1.71;63.78;102704.22;5026257;28;20042;-57
2022/03/01 06:54:05;;;;;;;28.63;15.23;;;;;;;1.74;64.79;102704.09;5025243;28;20042;-58
2022/03/01 06:56:31;;;;;;;31.83;16.37;;;;;;;1.76;64.91;102708.44;5023174;28;20034;-58
2022/03/01 06:58:57;;;;;;;25.90;15.40;;;;;;;1.78;64.60;102714.47;5024653;28;20037;-58
2022/03/01 07:01:23;;;;;;;28.77;15.47;;;;;;;1.80;64.76;102718.72;5042218;28;20109;-58
2022/03/01 07:03:48;;;;;;;28.13;15.50;;;;;;;1.84;64.13;102716.84;5024340;28;20115;-58
2022/03/01 07:06:13;;;;;;;26.53;15.67;;;;;;;1.88;63.93;102719.28;5037900;28;20053;-58
2022/03/01 07:08:39;;;;;;;29.07;15.67;;;;;;;1.92;64.27;102720.00;5023326;28;20452;-58
2022/03/01 07:11:04;;;;;;;28.83;15.60;;;;;;;1.96;62.70;102715.50;5027263;28;20083;-58
2022/03/01 07:13:29;;;;;;;28.03;16.37;;;;;;;2.00;62.32;102711.88;5021359;28;20048;-58
2022/03/01 07:15:55;;;;;;;28.17;15.43;;;;;;;2.07;62.93;102720.34;5024517;28;20029;-58
2022/03/01 07:18:21;;;;;;;25.97;15.83;;;;;;;2.11;62.37;102711.44;5023471;28;20033;-57
2022/03/01 07:20:46;;;;;;;28.47;15.77;;;;;;;2.15;62.41;102707.81;5025532;28;20087;-55
2022/03/01 07:23:12;;;;;;;25.90;16.03;;;;;;;2.19;62.63;102709.41;5022614;28;20029;-58
2022/03/01 07:25:38;;;;;;;29.83;16.60;;;;;;;2.24;62.64;102711.84;5023693;28;20452;-57
2022/03/01 07:28:04;;;;;;;26.93;16.40;;;;;;;2.27;61.79;102715.19;5023928;28;20053;-56
2022/03/01 07:30:29;;;;;;;29.03;16.33;;;;;;;2.32;61.81;102716.78;5025559;28;20044;-56
2022/03/01 07:32:58;;;;;;;26.70;16.00;;;;;;;2.37;62.53;102725.31;5023030;28;20072;-57
2022/03/01 07:35:24;;;;;;;26.27;16.13;;;;;;;2.38;62.13;102724.38;5023714;28;20113;-56
2022/03/01 07:37:50;;;;;;;27.50;16.13;;;;;;;2.42;62.34;102725.97;5021113;28;20038;-56
2022/03/01 07:40:17;;;;;;;28.50;16.30;;;;;;;2.44;62.17;102739.84;5025386;28;20492;-57
2022/03/01 07:42:43;;;;;;;26.73;15.97;;;;;;;2.48;62.18;102743.19;5022452;28;20037;-57
2022/03/01 07:45:09;;;;;;;27.30;16.90;;;;;;;2.50;62.02;102746.59;5018274;28;20554;-56
2022/03/01 07:47:34;;;;;;;28.87;16.40;;;;;;;2.50;61.72;102742.22;5020540;28;20033;-54
2022/03/01 07:50:00;;;;;;;30.10;16.67;;;;;;;2.52;61.96;102735.16;5026589;28;20510;-56
2022/03/01 07:52:25;;;;;;;27.27;16.63;;;;;;;2.52;62.36;102729.91;5021446;28;20025;-57
2022/03/01 07:54:51;;;;;;;25.40;15.80;;;;;;;2.58;62.39;102727.97;5027214;28;20048;-57
2022/03/01 07:57:17;;;;;;;31.23;16.30;;;;;;;2.60;61.67;102726.97;5026200;28;20068;-57
2022/03/01 07:59:42;;;;;;;27.03;16.43;;;;;;;2.60;61.36;102720.88;5022220;28;20054;-57
2022/03/01 08:02:08;;;;;;;28.37;16.77;;;;;;;2.61;62.49;102717.38;5020186;28;20445;-57
2022/03/01 08:04:34;;;;;;;30.70;16.90;;;;;;;2.59;62.09;102724.41;5021125;28;20033;-56
2022/03/01 08:06:59;;;;;;;27.67;16.23;;;;;;;2.59;61.71;102730.53;5023129;28;20067;-56
2022/03/01 08:09:25;;;;;;;30.97;16.70;;;;;;;2.61;61.70;102739.16;5022724;28;20029;-57
2022/03/01 08:11:50;;;;;;;28.10;16.30;;;;;;;2.63;61.04;102744.34;5019124;28;20433;-56
2022/03/01 08:14:16;;;;;;;31.03;16.57;;;;;;;2.67;62.04;102740.69;5022724;28;20041;-56
2022/03/01 08:16:41;;;;;;;27.77;16.00;;;;;;;2.68;61.61;102727.50;5021056;28;20041;-57
2022/03/01 08:19:07;;;;;;;27.47;14.90;;;;;;;2.74;60.85;102738.66;5022451;28;20061;-56
2022/03/01 08:21:32;;;;;;;27.13;16.37;;;;;;;2.78;61.12;102735.88;5022691;28;20353;-57
2022/03/01 08:23:57;;;;;;;27.30;16.50;;;;;;;2.83;61.52;102739.13;5019495;28;20943;-59
2022/03/01 08:26:22;;;;;;;26.50;15.27;;;;;;;2.89;61.25;102742.41;5019096;28;20053;-57
2022/03/01 08:28:48;;;;;;;26.27;15.83;;;;;;;2.91;60.42;102748.47;5025976;28;20035;-55
2022/03/01 08:31:13;;;;;;;27.30;16.23;;;;;;;2.96;60.76;102749.09;5038065;28;20033;-59
2022/03/01 08:33:38;;;;;;;27.63;16.43;;;;;;;3.00;61.40;102755.94;5023511;28;20038;-57
2022/03/01 08:36:05;;;;;;;27.43;16.27;;;;;;;3.02;61.11;102754.13;5020893;28;20054;-58
2022/03/01 08:38:30;;;;;;;28.17;16.30;;;;;;;3.06;61.99;102745.19;5020480;28;20108;-58
2022/03/01 08:40:56;;;;;;;27.37;15.90;;;;;;;3.11;61.15;102752.00;5024108;28;20116;-58
2022/03/01 08:43:22;;;;;;;30.90;15.70;;;;;;;3.14;61.36;102757.09;5025810;28;20108;-58
2022/03/01 08:45:47;;;;;;;27.73;16.10;;;;;;;3.17;62.07;102757.00;5029232;28;20461;-58
2022/03/01 08:48:13;;;;;;;26.43;15.70;;;;;;;3.23;60.93;102754.09;5031680;28;20490;-58
2022/03/01 08:50:38;;;;;;;27.43;16.40;;;;;;;3.30;60.60;102766.03;5029583;28;20025;-58
2022/03/01 08:53:04;;;;;;;27.23;16.40;;;;;;;3.36;59.52;102763.16;5029386;28;20531;-58
2022/03/01 08:55:30;;;;;;;26.57;15.77;;;;;;;3.41;58.67;102764.72;5028314;28;20041;-58
2022/03/01 08:57:57;;;;;;;28.47;16.23;;;;;;;3.48;58.24;102766.16;5025823;28;20092;-58
2022/03/01 09:00:23;;;;;;;26.50;15.83;;;;;;;3.57;58.41;102771.00;5029734;28;20387;-57
2022/03/01 09:02:49;;;;;;;25.97;15.30;;;;;;;3.65;59.18;102775.06;5027644;28;20107;-58
2022/03/01 09:05:14;;;;;;;26.42;15.15;;;;;;;3.73;58.37;102778.19;5027150;28;20049;-58
2022/03/01 09:07:40;;;;;;;26.03;15.23;;;;;;;3.80;58.27;102777.00;5020181;28;20509;-57
2022/03/01 09:10:06;;;;;;;28.58;15.63;;;;;;;3.87;58.46;102786.31;5028298;28;20029;-57
2022/03/01 09:12:31;;;;;;;25.50;15.23;;;;;;;3.95;57.92;102785.09;5021670;28;20026;-58
2022/03/01 09:14:57;;;;;;;27.00;14.97;;;;;;;4.03;57.99;102772.47;5024764;28;20040;-58
2022/03/01 09:17:22;;;;;;;27.03;15.13;;;;;;;4.13;57.30;102771.13;5024088;28;20036;-57
2022/03/01 09:19:47;;;;;;;27.20;15.15;;;;;;;4.20;57.07;102762.97;5024268;28;20512;-58
2022/03/01 09:22:13;;;;;;;28.20;15.82;;;;;;;4.25;55.72;102761.81;5029304;28;20057;-58
2022/03/01 09:24:39;;;;;;;25.65;14.82;;;;;;;4.28;56.47;102766.06;5024542;28;20025;-57
2022/03/01 09:27:05;;;;;;;26.02;15.20;;;;;;;4.31;55.39;102766.78;5026494;28;20045;-58
2022/03/01 09:29:30;;;;;;;24.70;15.00;;;;;;;4.34;56.57;102765.78;5028712;28;20460;-58
2022/03/01 09:31:56;;;;;;;24.50;15.02;;;;;;;4.35;56.91;102771.91;5024981;28;20030;-58
2022/03/01 09:34:22;;;;;;;25.70;15.25;;;;;;;4.39;56.70;102763.78;5025416;28;20033;-58
2022/03/01 09:36:47;;;;;;;27.98;15.38;;;;;;;4.43;56.27;102767.97;5026013;28;20029;-58
2022/03/01 09:39:12;;;;;;;27.48;15.95;;;;;;;4.48;57.70;102769.56;5021338;28;20472;-58
2022/03/01 09:41:38;;;;;;;26.73;15.45;;;;;;;4.54;56.83;102766.63;5025988;28;20021;-58
2022/03/01 09:44:04;;;;;;;26.67;14.95;;;;;;;4.60;57.33;102765.47;5022422;28;20464;-58
2022/03/01 09:46:30;;;;;;;25.92;15.95;;;;;;;4.66;55.72;102771.28;5020284;28;20041;-58
2022/03/01 09:48:56;;;;;;;26.65;15.52;;;;;;;4.72;56.82;102775.38;5024496;28;20022;-58
2022/03/01 09:51:23;;;;;;;24.63;14.98;;;;;;;4.76;55.99;102781.34;5025486;28;20457;-58
2022/03/01 09:53:51;;;;;;;28.58;15.55;;;;;;;4.82;55.23;102781.03;5023825;28;20341;-58
2022/03/01 09:56:18;;;;;;;26.35;15.18;;;;;;;4.85;55.15;102780.91;5025030;28;20021;-58
2022/03/01 09:58:48;;;;;;;24.65;14.90;;;;;;;4.89;55.45;102782.44;5024727;28;20029;-58
2022/03/01 10:01:16;;;;;;;27.58;15.23;;;;;;;4.91;55.90;102783.22;5029092;28;20034;-59
2022/03/01 10:03:41;;;;;;;25.50;14.93;;;;;;;4.97;55.85;102795.19;5023957;28;20033;-57
2022/03/01 10:06:11;;;;;;;25.20;14.88;;;;;;;4.96;54.93;102791.75;5024302;28;20458;-58
2022/03/01 10:08:39;;;;;;;26.98;14.73;;;;;;;5.03;54.45;102794.06;5041948;28;20424;-58
2022/03/01 10:11:05;;;;;;;25.08;14.73;;;;;;;5.03;55.11;102789.63;5030201;28;20014;-58
2022/03/01 10:13:36;;;;;;;25.73;14.55;;;;;;;5.02;55.23;102785.31;5029680;28;20107;-58
2022/03/01 10:16:13;;;;;;;24.90;14.05;;;;;;;5.15;55.31;102793.44;5023238;28;20029;-58
2022/03/01 10:18:41;;;;;;;25.58;14.60;;;;;;;5.15;54.16;102798.69;5023755;28;20056;-58
2022/03/01 10:21:09;;;;;;;24.40;14.38;;;;;;;5.15;54.36;102782.91;5026571;28;20457;-58
2022/03/01 10:23:35;;;;;;;24.55;15.20;;;;;;;5.23;53.68;102786.00;5026680;28;20115;-58
2022/03/01 10:26:20;;;;;;;23.80;14.13;;;;;;;5.25;53.95;102778.88;5025241;28;20022;-59
2022/03/01 10:28:47;;;;;;;25.67;14.30;;;;;;;5.33;54.13;102781.13;5018253;28;20026;-57
2022/03/01 10:31:18;;;;;;;23.27;14.25;;;;;;;5.32;53.23;102768.06;5023690;28;20486;-57
2022/03/01 10:34:07;;;;;;;25.38;14.20;;;;;;;5.42;54.00;102778.97;5024845;28;20025;-57
2022/03/01 10:36:40;;;;;;;23.70;14.23;;;;;;;5.45;52.80;102758.59;5027524;28;20065;-57
2022/03/01 10:39:16;;;;;;;24.63;14.57;;;;;;;5.55;52.30;102773.88;5021075;28;20057;-58
2022/03/01 10:41:43;;;;;;;26.30;14.75;;;;;;;5.60;53.32;102766.59;5025707;28;20042;-57
2022/03/01 10:44:24;;;;;;;25.60;15.20;;;;;;;5.67;52.18;102762.72;5023158;28;20029;-58
2022/03/01 10:46:53;;;;;;;25.17;14.52;;;;;;;5.78;52.58;102768.25;5021001;28;20552;-58
2022/03/01 10:49:38;;;;;;;22.75;14.75;;;;;;;5.89;53.35;102772.09;5023193;28;20475;-58
2022/03/01 10:52:07;;;;;;;25.63;14.20;;;;;;;5.94;51.99;102764.81;5028549;28;20464;-58
2022/03/01 10:54:38;;;;;;;24.75;14.85;;;;;;;6.04;51.49;102773.94;5018364;28;20129;-56
2022/03/01 10:57:09;;;;;;;24.58;15.38;;;;;;;6.11;52.09;102770.97;5022133;28;20099;-57
2022/03/01 10:59:36;;;;;;;24.45;14.40;;;;;;;6.27;51.13;102787.63;5024195;28;20056;-59
2022/03/01 11:02:03;;;;;;;23.95;14.07;;;;;;;6.36;51.36;102788.06;5028109;28;20471;-60
2022/03/01 11:04:29;;;;;;;23.83;14.27;;;;;;;6.44;51.25;102793.75;5022999;28;20033;-59
2022/03/01 11:06:58;;;;;;;23.70;14.30;;;;;;;6.48;50.37;102790.00;5028091;28;20493;-59
2022/03/01 11:09:25;;;;;;;23.10;14.25;;;;;;;6.51;51.51;102789.81;5024077;28;20052;-59
2022/03/01 11:11:52;;;;;;;24.35;14.43;;;;;;;6.55;51.40;102795.78;5025544;28;20382;-59